Rawsonville, Michigan
Current Conditions -  °F | °C
As of 2:53 PM on Sunday 21 Dec 2014 (Local Time) from KYIP Reporting Station
Overcast Overcast  
Wind Chill: 31°   Ceiling: 6000
Heat Index: 37°   Visibility: 10mi
Dew Point: 23°   Wind: 8mph
Humidity: 57%   Direction: 180°S
Pressure: 30.22"   Gusts: NA
Location:  42.1967°N, 83.6251°W
Report Text: KYIP 211953Z 18007KT 10SM OVC060 03/M05 A3022 RMK AO2 SLP240 T00281050
Loading
Personal Weather Stations






























Interactive Weather Map New forecast layout! Learn more

10-Day Weather Forecast

Advertisements
Track Severe Weather on mobile